sensor_id;sensor_type;location;lat;lon;timestamp;temperature;humidity
52669;DHT22;59898;52.786;6.892;2022-12-18T00:02:33;-4.00;99.90
52669;DHT22;59898;52.786;6.892;2022-12-18T00:05:54;-3.90;99.90
52669;DHT22;59898;52.786;6.892;2022-12-18T00:09:15;-4.00;99.90
52669;DHT22;59898;52.786;6.892;2022-12-18T00:12:36;-3.90;99.90
52669;DHT22;59898;52.786;6.892;2022-12-18T00:16:04;-3.70;99.90
52669;DHT22;59898;52.786;6.892;2022-12-18T00:19:26;-3.80;99.90
52669;DHT22;59898;52.786;6.892;2022-12-18T00:22:46;-3.90;99.90
52669;DHT22;59898;52.786;6.892;2022-12-18T00:26:14;-3.90;99.90
52669;DHT22;59898;52.786;6.892;2022-12-18T00:29:38;-3.30;99.90
52669;DHT22;59898;52.786;6.892;2022-12-18T00:32:59;-3.80;99.90
52669;DHT22;59898;52.786;6.892;2022-12-18T00:36:25;-3.90;99.90
52669;DHT22;59898;52.786;6.892;2022-12-18T00:39:48;-3.90;99.90
52669;DHT22;59898;52.786;6.892;2022-12-18T00:43:08;-4.10;99.90
52669;DHT22;59898;52.786;6.892;2022-12-18T00:46:29;-4.20;99.90
52669;DHT22;59898;52.786;6.892;2022-12-18T00:49:50;-4.20;99.90
52669;DHT22;59898;52.786;6.892;2022-12-18T00:53:11;-4.30;99.90
52669;DHT22;59898;52.786;6.892;2022-12-18T00:56:32;-3.60;99.90
52669;DHT22;59898;52.786;6.892;2022-12-18T00:59:52;-4.30;99.90
52669;DHT22;59898;52.786;6.892;2022-12-18T01:03:14;-4.40;99.90
52669;DHT22;59898;52.786;6.892;2022-12-18T01:06:35;-4.30;99.90
52669;DHT22;59898;52.786;6.892;2022-12-18T01:09:55;-4.30;99.90
52669;DHT22;59898;52.786;6.892;2022-12-18T01:13:16;-4.50;99.90
52669;DHT22;59898;52.786;6.892;2022-12-18T01:16:37;-2.70;99.90
52669;DHT22;59898;52.786;6.892;2022-12-18T01:19:57;-4.60;99.90
52669;DHT22;59898;52.786;6.892;2022-12-18T01:23:18;-4.70;99.90
52669;DHT22;59898;52.786;6.892;2022-12-18T01:26:39;-4.70;99.90
52669;DHT22;59898;52.786;6.892;2022-12-18T01:30:00;-4.70;99.90
52669;DHT22;59898;52.786;6.892;2022-12-18T01:33:20;-4.90;99.90
52669;DHT22;59898;52.786;6.892;2022-12-18T01:36:41;-4.80;99.90
52669;DHT22;59898;52.786;6.892;2022-12-18T01:40:02;-4.90;99.90
52669;DHT22;59898;52.786;6.892;2022-12-18T01:43:44;-4.80;99.90
52669;DHT22;59898;52.786;6.892;2022-12-18T01:47:05;-4.80;99.90
52669;DHT22;59898;52.786;6.892;2022-12-18T01:50:33;-5.00;99.90
52669;DHT22;59898;52.786;6.892;2022-12-18T01:53:56;-5.00;99.90
52669;DHT22;59898;52.786;6.892;2022-12-18T01:57:17;-5.10;99.90
52669;DHT22;59898;52.786;6.892;2022-12-18T02:00:39;-4.60;99.90
52669;DHT22;59898;52.786;6.892;2022-12-18T02:04:19;-5.10;99.90
52669;DHT22;59898;52.786;6.892;2022-12-18T02:15:19;-5.30;99.90
52669;DHT22;59898;52.786;6.892;2022-12-18T02:18:50;-5.30;99.90
52669;DHT22;59898;52.786;6.892;2022-12-18T02:29:10;-5.40;99.90
52669;DHT22;59898;52.786;6.892;2022-12-18T02:32:36;-5.50;99.90
52669;DHT22;59898;52.786;6.892;2022-12-18T02:36:00;-5.50;99.90
52669;DHT22;59898;52.786;6.892;2022-12-18T02:39:22;-4.50;99.90
52669;DHT22;59898;52.786;6.892;2022-12-18T02:42:44;-5.60;99.90
52669;DHT22;59898;52.786;6.892;2022-12-18T02:46:41;-5.70;99.90
52669;DHT22;59898;52.786;6.892;2022-12-18T02:54:13;-5.80;99.90
52669;DHT22;59898;52.786;6.892;2022-12-18T02:57:50;-5.80;99.90
52669;DHT22;59898;52.786;6.892;2022-12-18T03:01:26;-5.90;99.90
52669;DHT22;59898;52.786;6.892;2022-12-18T03:05:02;-6.00;99.90
52669;DHT22;59898;52.786;6.892;2022-12-18T03:08:31;-6.00;99.90
52669;DHT22;59898;52.786;6.892;2022-12-18T03:11:57;-6.00;99.90
52669;DHT22;59898;52.786;6.892;2022-12-18T03:15:49;-6.00;99.90
52669;DHT22;59898;52.786;6.892;2022-12-18T03:19:15;-6.10;99.90
52669;DHT22;59898;52.786;6.892;2022-12-18T03:22:38;-5.90;99.90
52669;DHT22;59898;52.786;6.892;2022-12-18T03:26:02;-5.90;99.90
52669;DHT22;59898;52.786;6.892;2022-12-18T03:29:36;-5.90;99.90
52669;DHT22;59898;52.786;6.892;2022-12-18T03:33:05;-5.80;99.90
52669;DHT22;59898;52.786;6.892;2022-12-18T03:36:28;-5.90;99.90
52669;DHT22;59898;52.786;6.892;2022-12-18T03:39:48;-5.90;99.90
52669;DHT22;59898;52.786;6.892;2022-12-18T03:50:30;-5.90;99.90
52669;DHT22;59898;52.786;6.892;2022-12-18T03:54:02;-5.20;99.90
52669;DHT22;59898;52.786;6.892;2022-12-18T03:57:26;-6.00;99.90
52669;DHT22;59898;52.786;6.892;2022-12-18T04:00:51;-6.10;99.90
52669;DHT22;59898;52.786;6.892;2022-12-18T04:04:13;-6.10;99.90
52669;DHT22;59898;52.786;6.892;2022-12-18T04:07:35;-6.20;99.90
52669;DHT22;59898;52.786;6.892;2022-12-18T04:10:56;-6.00;99.90
52669;DHT22;59898;52.786;6.892;2022-12-18T04:14:17;-6.00;99.90
52669;DHT22;59898;52.786;6.892;2022-12-18T04:17:38;-4.40;99.90
52669;DHT22;59898;52.786;6.892;2022-12-18T04:21:03;-6.00;99.90
52669;DHT22;59898;52.786;6.892;2022-12-18T04:24:24;-5.90;99.90
52669;DHT22;59898;52.786;6.892;2022-12-18T04:27:44;-6.00;99.90
52669;DHT22;59898;52.786;6.892;2022-12-18T04:31:05;-6.00;99.90
52669;DHT22;59898;52.786;6.892;2022-12-18T04:34:26;-6.00;99.90
52669;DHT22;59898;52.786;6.892;2022-12-18T04:37:46;-5.90;99.90
52669;DHT22;59898;52.786;6.892;2022-12-18T04:41:07;-6.10;99.90
52669;DHT22;59898;52.786;6.892;2022-12-18T04:44:28;-6.00;99.90
52669;DHT22;59898;52.786;6.892;2022-12-18T04:47:48;-6.10;99.90
52669;DHT22;59898;52.786;6.892;2022-12-18T04:51:09;-5.80;99.90
52669;DHT22;59898;52.786;6.892;2022-12-18T04:54:30;-6.10;99.90
52669;DHT22;59898;52.786;6.892;2022-12-18T04:57:50;-6.00;99.90
52669;DHT22;59898;52.786;6.892;2022-12-18T05:01:13;-6.00;99.90
52669;DHT22;59898;52.786;6.892;2022-12-18T05:04:34;-6.10;99.90
52669;DHT22;59898;52.786;6.892;2022-12-18T05:07:54;-6.10;99.90
52669;DHT22;59898;52.786;6.892;2022-12-18T05:11:15;-6.10;99.90
52669;DHT22;59898;52.786;6.892;2022-12-18T05:14:36;-6.00;99.90
52669;DHT22;59898;52.786;6.892;2022-12-18T05:17:58;-6.10;99.90
52669;DHT22;59898;52.786;6.892;2022-12-18T05:21:19;-6.10;99.90
52669;DHT22;59898;52.786;6.892;2022-12-18T05:24:39;-6.10;99.90
52669;DHT22;59898;52.786;6.892;2022-12-18T05:28:00;-6.10;99.90
52669;DHT22;59898;52.786;6.892;2022-12-18T05:31:21;-6.10;99.90
52669;DHT22;59898;52.786;6.892;2022-12-18T05:34:41;-6.00;99.90
52669;DHT22;59898;52.786;6.892;2022-12-18T05:38:02;-6.00;99.90
52669;DHT22;59898;52.786;6.892;2022-12-18T05:41:23;-6.10;99.90
52669;DHT22;59898;52.786;6.892;2022-12-18T05:44:43;-6.10;99.90
52669;DHT22;59898;52.786;6.892;2022-12-18T05:48:05;-6.10;99.90
52669;DHT22;59898;52.786;6.892;2022-12-18T05:51:25;-6.00;99.90
52669;DHT22;59898;52.786;6.892;2022-12-18T05:54:46;-5.90;99.90
52669;DHT22;59898;52.786;6.892;2022-12-18T05:58:08;-6.00;99.90
52669;DHT22;59898;52.786;6.892;2022-12-18T06:01:29;-6.00;99.90
52669;DHT22;59898;52.786;6.892;2022-12-18T06:04:50;-5.90;99.90
52669;DHT22;59898;52.786;6.892;2022-12-18T06:08:12;-6.10;99.90
52669;DHT22;59898;52.786;6.892;2022-12-18T06:11:32;-6.10;99.90
52669;DHT22;59898;52.786;6.892;2022-12-18T06:14:53;-6.10;99.90
52669;DHT22;59898;52.786;6.892;2022-12-18T06:18:14;-6.20;99.90
52669;DHT22;59898;52.786;6.892;2022-12-18T06:21:35;-6.20;99.90
52669;DHT22;59898;52.786;6.892;2022-12-18T06:24:55;-6.20;99.90
52669;DHT22;59898;52.786;6.892;2022-12-18T06:28:17;-6.30;99.90
52669;DHT22;59898;52.786;6.892;2022-12-18T06:31:37;-6.30;99.90
52669;DHT22;59898;52.786;6.892;2022-12-18T06:34:58;-6.20;99.90
52669;DHT22;59898;52.786;6.892;2022-12-18T06:38:19;-6.30;99.90
52669;DHT22;59898;52.786;6.892;2022-12-18T06:41:39;-8.10;99.90
52669;DHT22;59898;52.786;6.892;2022-12-18T06:45:00;-6.20;99.90
52669;DHT22;59898;52.786;6.892;2022-12-18T06:48:21;-6.20;99.90
52669;DHT22;59898;52.786;6.892;2022-12-18T06:51:42;-6.20;99.90
52669;DHT22;59898;52.786;6.892;2022-12-18T06:55:02;-6.20;99.90
52669;DHT22;59898;52.786;6.892;2022-12-18T06:58:23;-6.20;99.90
52669;DHT22;59898;52.786;6.892;2022-12-18T07:01:44;-6.20;99.90
52669;DHT22;59898;52.786;6.892;2022-12-18T07:05:05;-6.30;99.90
52669;DHT22;59898;52.786;6.892;2022-12-18T07:08:26;-6.10;99.90
52669;DHT22;59898;52.786;6.892;2022-12-18T07:11:47;-6.10;99.90
52669;DHT22;59898;52.786;6.892;2022-12-18T07:15:08;-6.20;99.90
52669;DHT22;59898;52.786;6.892;2022-12-18T07:18:28;-6.10;99.90
52669;DHT22;59898;52.786;6.892;2022-12-18T07:21:50;-6.10;99.90
52669;DHT22;59898;52.786;6.892;2022-12-18T07:25:11;-5.50;99.90
52669;DHT22;59898;52.786;6.892;2022-12-18T07:28:32;-6.10;99.90
52669;DHT22;59898;52.786;6.892;2022-12-18T07:31:53;-6.00;99.90
52669;DHT22;59898;52.786;6.892;2022-12-18T07:35:14;-6.00;99.90
52669;DHT22;59898;52.786;6.892;2022-12-18T07:38:35;-5.90;99.90
52669;DHT22;59898;52.786;6.892;2022-12-18T07:41:55;-6.00;99.90
52669;DHT22;59898;52.786;6.892;2022-12-18T07:45:35;-5.80;99.90
52669;DHT22;59898;52.786;6.892;2022-12-18T07:48:56;-5.80;99.90
52669;DHT22;59898;52.786;6.892;2022-12-18T07:52:17;-5.70;99.90
52669;DHT22;59898;52.786;6.892;2022-12-18T07:55:38;-5.70;99.90
52669;DHT22;59898;52.786;6.892;2022-12-18T07:58:59;-5.60;99.90
52669;DHT22;59898;52.786;6.892;2022-12-18T08:02:19;-5.40;99.90
52669;DHT22;59898;52.786;6.892;2022-12-18T08:05:40;-5.30;99.90
52669;DHT22;59898;52.786;6.892;2022-12-18T08:09:01;-5.30;99.90
52669;DHT22;59898;52.786;6.892;2022-12-18T08:12:21;-5.30;99.90
52669;DHT22;59898;52.786;6.892;2022-12-18T08:15:42;-5.20;99.90
52669;DHT22;59898;52.786;6.892;2022-12-18T08:19:03;-5.00;99.90
52669;DHT22;59898;52.786;6.892;2022-12-18T08:22:24;-4.90;99.90
52669;DHT22;59898;52.786;6.892;2022-12-18T08:25:45;-4.70;99.90
52669;DHT22;59898;52.786;6.892;2022-12-18T08:29:05;-4.70;99.90
52669;DHT22;59898;52.786;6.892;2022-12-18T08:32:27;-4.60;99.90
52669;DHT22;59898;52.786;6.892;2022-12-18T08:35:48;-4.60;99.90
52669;DHT22;59898;52.786;6.892;2022-12-18T08:39:09;-4.50;99.90
52669;DHT22;59898;52.786;6.892;2022-12-18T08:42:29;-4.50;99.90
52669;DHT22;59898;52.786;6.892;2022-12-18T08:46:09;-4.40;99.90
52669;DHT22;59898;52.786;6.892;2022-12-18T08:49:29;-4.40;99.90
52669;DHT22;59898;52.786;6.892;2022-12-18T08:52:50;-4.50;99.90
52669;DHT22;59898;52.786;6.892;2022-12-18T08:56:12;-4.50;99.90
52669;DHT22;59898;52.786;6.892;2022-12-18T08:59:33;-4.30;99.90
52669;DHT22;59898;52.786;6.892;2022-12-18T09:02:53;-4.30;99.90
52669;DHT22;59898;52.786;6.892;2022-12-18T09:06:20;-4.20;99.90
52669;DHT22;59898;52.786;6.892;2022-12-18T09:09:41;-4.00;99.90
52669;DHT22;59898;52.786;6.892;2022-12-18T09:13:01;-3.60;99.90
52669;DHT22;59898;52.786;6.892;2022-12-18T09:16:23;-1.10;99.90
52669;DHT22;59898;52.786;6.892;2022-12-18T09:19:44;-2.60;99.90
52669;DHT22;59898;52.786;6.892;2022-12-18T09:23:06;-2.00;99.90
52669;DHT22;59898;52.786;6.892;2022-12-18T09:26:27;-1.80;99.90
52669;DHT22;59898;52.786;6.892;2022-12-18T09:29:48;-1.70;99.90
52669;DHT22;59898;52.786;6.892;2022-12-18T09:33:08;0.20;99.90
52669;DHT22;59898;52.786;6.892;2022-12-18T09:36:29;-0.90;99.90
52669;DHT22;59898;52.786;6.892;2022-12-18T09:39:50;-1.20;99.90
52669;DHT22;59898;52.786;6.892;2022-12-18T09:43:39;0.60;99.90
52669;DHT22;59898;52.786;6.892;2022-12-18T09:47:13;1.10;99.90
52669;DHT22;59898;52.786;6.892;2022-12-18T09:50:37;-0.50;99.90
52669;DHT22;59898;52.786;6.892;2022-12-18T09:54:33;0.50;99.90
52669;DHT22;59898;52.786;6.892;2022-12-18T09:58:02;-0.60;99.90
52669;DHT22;59898;52.786;6.892;2022-12-18T10:01:27;-0.10;99.90
52669;DHT22;59898;52.786;6.892;2022-12-18T10:05:04;0.10;99.90
52669;DHT22;59898;52.786;6.892;2022-12-18T10:15:54;0.70;99.90
52669;DHT22;59898;52.786;6.892;2022-12-18T10:19:37;1.30;99.90
52669;DHT22;59898;52.786;6.892;2022-12-18T10:23:09;2.10;99.90
52669;DHT22;59898;52.786;6.892;2022-12-18T10:26:32;2.50;99.90
52669;DHT22;59898;52.786;6.892;2022-12-18T10:29:54;2.10;99.90
52669;DHT22;59898;52.786;6.892;2022-12-18T10:33:17;1.50;99.90
52669;DHT22;59898;52.786;6.892;2022-12-18T10:36:39;2.10;99.90
52669;DHT22;59898;52.786;6.892;2022-12-18T10:40:15;1.40;99.90
52669;DHT22;59898;52.786;6.892;2022-12-18T10:43:37;0.60;99.90
52669;DHT22;59898;52.786;6.892;2022-12-18T10:47:04;-1.00;99.90
52669;DHT22;59898;52.786;6.892;2022-12-18T10:50:35;-1.00;99.90
52669;DHT22;59898;52.786;6.892;2022-12-18T11:04:24;-1.60;99.90
52669;DHT22;59898;52.786;6.892;2022-12-18T11:07:48;-2.00;99.90
52669;DHT22;59898;52.786;6.892;2022-12-18T11:11:23;-1.80;99.90
52669;DHT22;59898;52.786;6.892;2022-12-18T11:18:04;-2.10;99.90
52669;DHT22;59898;52.786;6.892;2022-12-18T11:21:25;-2.00;99.90
52669;DHT22;59898;52.786;6.892;2022-12-18T11:25:04;-2.40;99.90
52669;DHT22;59898;52.786;6.892;2022-12-18T11:28:39;-1.60;99.90
52669;DHT22;59898;52.786;6.892;2022-12-18T11:35:50;-2.30;99.90
52669;DHT22;59898;52.786;6.892;2022-12-18T11:39:31;-2.00;99.90
52669;DHT22;59898;52.786;6.892;2022-12-18T11:43:04;-1.90;99.90
52669;DHT22;59898;52.786;6.892;2022-12-18T11:46:36;-1.90;99.90
52669;DHT22;59898;52.786;6.892;2022-12-18T11:50:01;-1.90;99.90
52669;DHT22;59898;52.786;6.892;2022-12-18T11:53:25;-0.30;99.90
52669;DHT22;59898;52.786;6.892;2022-12-18T11:57:10;-1.80;99.90
52669;DHT22;59898;52.786;6.892;2022-12-18T12:00:41;-1.80;99.90
52669;DHT22;59898;52.786;6.892;2022-12-18T12:08:10;-1.80;99.90
52669;DHT22;59898;52.786;6.892;2022-12-18T12:15:27;-1.70;99.90
52669;DHT22;59898;52.786;6.892;2022-12-18T12:26:08;-1.70;99.90
52669;DHT22;59898;52.786;6.892;2022-12-18T12:29:48;0.00;99.90
52669;DHT22;59898;52.786;6.892;2022-12-18T12:33:41;-1.70;99.90
52669;DHT22;59898;52.786;6.892;2022-12-18T12:40:31;-1.70;99.90
52669;DHT22;59898;52.786;6.892;2022-12-18T12:43:56;-1.50;99.90
52669;DHT22;59898;52.786;6.892;2022-12-18T12:47:25;0.10;99.90
52669;DHT22;59898;52.786;6.892;2022-12-18T12:50:48;-0.60;99.90
52669;DHT22;59898;52.786;6.892;2022-12-18T12:54:17;0.20;99.90
52669;DHT22;59898;52.786;6.892;2022-12-18T12:57:44;-1.70;99.90
52669;DHT22;59898;52.786;6.892;2022-12-18T13:08:29;-1.50;99.90
52669;DHT22;59898;52.786;6.892;2022-12-18T13:11:50;-1.50;99.90
52669;DHT22;59898;52.786;6.892;2022-12-18T13:19:23;-1.40;99.90
52669;DHT22;59898;52.786;6.892;2022-12-18T13:22:48;-1.40;99.90
52669;DHT22;59898;52.786;6.892;2022-12-18T13:29:45;-1.10;99.90
52669;DHT22;59898;52.786;6.892;2022-12-18T13:36:36;-0.40;99.90
52669;DHT22;59898;52.786;6.892;2022-12-18T13:39:57;-1.10;99.90
52669;DHT22;59898;52.786;6.892;2022-12-18T13:46:47;-1.40;99.90
52669;DHT22;59898;52.786;6.892;2022-12-18T13:50:23;-1.40;99.90
52669;DHT22;59898;52.786;6.892;2022-12-18T13:57:33;-1.40;99.90
52669;DHT22;59898;52.786;6.892;2022-12-18T14:00:54;-1.50;99.90
52669;DHT22;59898;52.786;6.892;2022-12-18T14:04:21;-0.70;99.90
52669;DHT22;59898;52.786;6.892;2022-12-18T14:07:42;-1.80;99.90
52669;DHT22;59898;52.786;6.892;2022-12-18T14:11:05;-1.00;99.90
52669;DHT22;59898;52.786;6.892;2022-12-18T14:14:27;-1.90;99.90
52669;DHT22;59898;52.786;6.892;2022-12-18T14:17:50;-0.60;99.90
52669;DHT22;59898;52.786;6.892;2022-12-18T14:21:22;-1.60;99.90
52669;DHT22;59898;52.786;6.892;2022-12-18T14:24:44;-1.60;99.90
52669;DHT22;59898;52.786;6.892;2022-12-18T14:28:12;-0.50;99.90
52669;DHT22;59898;52.786;6.892;2022-12-18T14:31:33;-1.40;99.90
52669;DHT22;59898;52.786;6.892;2022-12-18T14:34:54;-1.70;99.90
52669;DHT22;59898;52.786;6.892;2022-12-18T14:38:26;-0.80;99.90
52669;DHT22;59898;52.786;6.892;2022-12-18T14:41:49;-1.70;99.90
52669;DHT22;59898;52.786;6.892;2022-12-18T14:48:53;-1.70;99.90
52669;DHT22;59898;52.786;6.892;2022-12-18T14:52:26;-1.70;99.90
52669;DHT22;59898;52.786;6.892;2022-12-18T14:55:48;-1.40;99.90
52669;DHT22;59898;52.786;6.892;2022-12-18T14:59:20;-1.80;99.90
52669;DHT22;59898;52.786;6.892;2022-12-18T15:02:43;-2.10;99.90
52669;DHT22;59898;52.786;6.892;2022-12-18T15:06:25;-1.80;99.90
52669;DHT22;59898;52.786;6.892;2022-12-18T15:13:32;-1.70;99.90
52669;DHT22;59898;52.786;6.892;2022-12-18T15:16:54;-1.00;99.90
52669;DHT22;59898;52.786;6.892;2022-12-18T15:20:15;-1.00;99.90
52669;DHT22;59898;52.786;6.892;2022-12-18T15:31:20;-1.70;99.90
52669;DHT22;59898;52.786;6.892;2022-12-18T15:34:38;-1.80;99.90
52669;DHT22;59898;52.786;6.892;2022-12-18T15:37:59;-1.80;99.90
52669;DHT22;59898;52.786;6.892;2022-12-18T15:41:21;-2.10;99.90
52669;DHT22;59898;52.786;6.892;2022-12-18T15:44:43;-1.70;99.90
52669;DHT22;59898;52.786;6.892;2022-12-18T15:48:32;-1.70;99.90
52669;DHT22;59898;52.786;6.892;2022-12-18T15:51:56;-0.80;99.90
52669;DHT22;59898;52.786;6.892;2022-12-18T15:55:20;-1.70;99.90
52669;DHT22;59898;52.786;6.892;2022-12-18T15:59:02;-0.40;99.90
52669;DHT22;59898;52.786;6.892;2022-12-18T16:02:23;-0.50;99.90
52669;DHT22;59898;52.786;6.892;2022-12-18T16:05:44;-1.90;99.90
52669;DHT22;59898;52.786;6.892;2022-12-18T16:09:05;-2.00;99.90
52669;DHT22;59898;52.786;6.892;2022-12-18T16:12:26;-1.70;99.90
52669;DHT22;59898;52.786;6.892;2022-12-18T16:15:47;-1.70;99.90
52669;DHT22;59898;52.786;6.892;2022-12-18T16:19:07;-0.50;99.90
52669;DHT22;59898;52.786;6.892;2022-12-18T16:22:29;0.10;99.90
52669;DHT22;59898;52.786;6.892;2022-12-18T16:25:50;-1.60;99.90
52669;DHT22;59898;52.786;6.892;2022-12-18T16:29:12;-1.20;99.90
52669;DHT22;59898;52.786;6.892;2022-12-18T16:32:32;0.00;99.90
52669;DHT22;59898;52.786;6.892;2022-12-18T16:35:53;-1.60;99.90
52669;DHT22;59898;52.786;6.892;2022-12-18T16:39:14;-1.90;99.90
52669;DHT22;59898;52.786;6.892;2022-12-18T16:42:36;-1.70;99.90
52669;DHT22;59898;52.786;6.892;2022-12-18T16:45:58;-1.70;99.90
52669;DHT22;59898;52.786;6.892;2022-12-18T16:49:19;-0.50;99.90
52669;DHT22;59898;52.786;6.892;2022-12-18T16:52:40;-1.50;99.90
52669;DHT22;59898;52.786;6.892;2022-12-18T16:56:01;-0.80;99.90
52669;DHT22;59898;52.786;6.892;2022-12-18T16:59:22;-1.40;99.90
52669;DHT22;59898;52.786;6.892;2022-12-18T17:02:42;0.00;99.90
52669;DHT22;59898;52.786;6.892;2022-12-18T17:06:04;-1.40;99.90
52669;DHT22;59898;52.786;6.892;2022-12-18T17:09:25;-1.50;99.90
52669;DHT22;59898;52.786;6.892;2022-12-18T17:12:46;-0.20;99.90
52669;DHT22;59898;52.786;6.892;2022-12-18T17:16:08;-1.50;99.90
52669;DHT22;59898;52.786;6.892;2022-12-18T17:19:29;-0.40;99.90
52669;DHT22;59898;52.786;6.892;2022-12-18T17:22:50;-1.40;99.90
52669;DHT22;59898;52.786;6.892;2022-12-18T17:26:12;-1.00;99.90
52669;DHT22;59898;52.786;6.892;2022-12-18T17:29:32;-0.90;99.90
52669;DHT22;59898;52.786;6.892;2022-12-18T17:32:53;-1.20;99.90
52669;DHT22;59898;52.786;6.892;2022-12-18T17:36:15;-1.20;99.90
52669;DHT22;59898;52.786;6.892;2022-12-18T17:39:36;-0.40;99.90
52669;DHT22;59898;52.786;6.892;2022-12-18T17:42:57;0.30;99.90
52669;DHT22;59898;52.786;6.892;2022-12-18T17:46:18;0.50;99.90
52669;DHT22;59898;52.786;6.892;2022-12-18T17:49:39;-1.00;99.90
52669;DHT22;59898;52.786;6.892;2022-12-18T17:53:00;-1.30;99.90
52669;DHT22;59898;52.786;6.892;2022-12-18T17:56:22;-1.00;99.90
52669;DHT22;59898;52.786;6.892;2022-12-18T17:59:43;-1.00;99.90
52669;DHT22;59898;52.786;6.892;2022-12-18T18:03:04;0.60;99.90
52669;DHT22;59898;52.786;6.892;2022-12-18T18:06:24;-1.10;99.90
52669;DHT22;59898;52.786;6.892;2022-12-18T18:09:45;-0.90;99.90
52669;DHT22;59898;52.786;6.892;2022-12-18T18:13:19;-1.00;99.90
52669;DHT22;59898;52.786;6.892;2022-12-18T18:16:58;-0.30;99.90
52669;DHT22;59898;52.786;6.892;2022-12-18T18:20:19;-1.10;99.90
52669;DHT22;59898;52.786;6.892;2022-12-18T18:23:40;-1.00;99.90
52669;DHT22;59898;52.786;6.892;2022-12-18T18:27:00;0.80;99.90
52669;DHT22;59898;52.786;6.892;2022-12-18T18:30:21;-0.80;99.90
52669;DHT22;59898;52.786;6.892;2022-12-18T18:33:42;1.20;99.90
52669;DHT22;59898;52.786;6.892;2022-12-18T18:37:02;-1.10;99.90
52669;DHT22;59898;52.786;6.892;2022-12-18T18:40:23;-0.70;99.90
52669;DHT22;59898;52.786;6.892;2022-12-18T18:43:44;-0.40;99.90
52669;DHT22;59898;52.786;6.892;2022-12-18T18:47:05;-0.90;99.90
52669;DHT22;59898;52.786;6.892;2022-12-18T18:50:25;-0.70;99.90
52669;DHT22;59898;52.786;6.892;2022-12-18T18:53:47;-0.60;99.90
52669;DHT22;59898;52.786;6.892;2022-12-18T18:57:08;-0.90;99.90
52669;DHT22;59898;52.786;6.892;2022-12-18T19:00:31;-0.80;99.90
52669;DHT22;59898;52.786;6.892;2022-12-18T19:03:52;-0.80;99.90
52669;DHT22;59898;52.786;6.892;2022-12-18T19:07:15;-0.10;99.90
52669;DHT22;59898;52.786;6.892;2022-12-18T19:10:39;0.60;99.90
52669;DHT22;59898;52.786;6.892;2022-12-18T19:14:03;-0.80;99.90
52669;DHT22;59898;52.786;6.892;2022-12-18T19:17:24;-0.70;99.90
52669;DHT22;59898;52.786;6.892;2022-12-18T19:20:56;-0.70;99.90
52669;DHT22;59898;52.786;6.892;2022-12-18T19:24:17;0.40;99.90
52669;DHT22;59898;52.786;6.892;2022-12-18T19:27:38;-0.30;99.90
52669;DHT22;59898;52.786;6.892;2022-12-18T19:31:01;-0.60;99.90
52669;DHT22;59898;52.786;6.892;2022-12-18T19:34:22;-0.80;99.90
52669;DHT22;59898;52.786;6.892;2022-12-18T19:37:43;-0.80;99.90
52669;DHT22;59898;52.786;6.892;2022-12-18T19:41:07;0.80;99.90
52669;DHT22;59898;52.786;6.892;2022-12-18T19:44:28;-0.10;99.90
52669;DHT22;59898;52.786;6.892;2022-12-18T19:47:48;-0.70;99.90
52669;DHT22;59898;52.786;6.892;2022-12-18T19:51:18;0.70;99.90
52669;DHT22;59898;52.786;6.892;2022-12-18T19:54:39;-0.70;99.90
52669;DHT22;59898;52.786;6.892;2022-12-18T19:57:59;-0.70;99.90
52669;DHT22;59898;52.786;6.892;2022-12-18T20:01:21;0.30;99.90
52669;DHT22;59898;52.786;6.892;2022-12-18T20:04:43;0.50;99.90
52669;DHT22;59898;52.786;6.892;2022-12-18T20:08:04;0.60;99.90
52669;DHT22;59898;52.786;6.892;2022-12-18T20:11:24;0.90;99.90
52669;DHT22;59898;52.786;6.892;2022-12-18T20:14:45;-0.90;99.90
52669;DHT22;59898;52.786;6.892;2022-12-18T20:18:08;-1.00;99.90
52669;DHT22;59898;52.786;6.892;2022-12-18T20:21:29;0.10;99.90
52669;DHT22;59898;52.786;6.892;2022-12-18T20:24:50;-0.90;99.90
52669;DHT22;59898;52.786;6.892;2022-12-18T20:28:10;1.00;99.90
52669;DHT22;59898;52.786;6.892;2022-12-18T20:31:31;0.20;99.90
52669;DHT22;59898;52.786;6.892;2022-12-18T20:34:52;1.20;99.90
52669;DHT22;59898;52.786;6.892;2022-12-18T20:38:12;-0.50;99.90
52669;DHT22;59898;52.786;6.892;2022-12-18T20:41:33;0.80;99.90
52669;DHT22;59898;52.786;6.892;2022-12-18T20:44:54;-0.90;99.90
52669;DHT22;59898;52.786;6.892;2022-12-18T20:48:14;-0.40;99.90
52669;DHT22;59898;52.786;6.892;2022-12-18T20:51:35;1.10;99.90
52669;DHT22;59898;52.786;6.892;2022-12-18T20:54:56;1.40;99.90
52669;DHT22;59898;52.786;6.892;2022-12-18T20:58:18;-0.30;99.90
52669;DHT22;59898;52.786;6.892;2022-12-18T21:01:38;0.20;99.90
52669;DHT22;59898;52.786;6.892;2022-12-18T21:04:59;0.90;99.90
52669;DHT22;59898;52.786;6.892;2022-12-18T21:08:20;-0.20;99.90
52669;DHT22;59898;52.786;6.892;2022-12-18T21:11:40;-0.50;99.90
52669;DHT22;59898;52.786;6.892;2022-12-18T21:15:19;-0.40;99.90
52669;DHT22;59898;52.786;6.892;2022-12-18T21:18:40;0.00;99.90
52669;DHT22;59898;52.786;6.892;2022-12-18T21:22:01;0.00;99.90
52669;DHT22;59898;52.786;6.892;2022-12-18T21:25:22;1.20;99.90
52669;DHT22;59898;52.786;6.892;2022-12-18T21:28:43;0.10;99.90
52669;DHT22;59898;52.786;6.892;2022-12-18T21:32:04;0.20;99.90
52669;DHT22;59898;52.786;6.892;2022-12-18T21:35:25;0.20;99.90
52669;DHT22;59898;52.786;6.892;2022-12-18T21:38:45;0.70;99.90
52669;DHT22;59898;52.786;6.892;2022-12-18T21:42:07;0.10;99.90
52669;DHT22;59898;52.786;6.892;2022-12-18T21:45:47;0.90;99.90
52669;DHT22;59898;52.786;6.892;2022-12-18T21:49:09;0.60;99.90
52669;DHT22;59898;52.786;6.892;2022-12-18T21:52:30;1.60;99.90
52669;DHT22;59898;52.786;6.892;2022-12-18T21:55:59;0.90;99.90
52669;DHT22;59898;52.786;6.892;2022-12-18T21:59:21;0.30;99.90
52669;DHT22;59898;52.786;6.892;2022-12-18T22:02:42;1.60;99.90
52669;DHT22;59898;52.786;6.892;2022-12-18T22:06:03;0.30;99.90
52669;DHT22;59898;52.786;6.892;2022-12-18T22:09:24;0.30;99.90
52669;DHT22;59898;52.786;6.892;2022-12-18T22:12:45;0.30;99.90
52669;DHT22;59898;52.786;6.892;2022-12-18T22:16:06;1.20;99.90
52669;DHT22;59898;52.786;6.892;2022-12-18T22:19:26;0.30;99.90
52669;DHT22;59898;52.786;6.892;2022-12-18T22:22:48;0.30;99.90
52669;DHT22;59898;52.786;6.892;2022-12-18T22:26:11;1.40;99.90
52669;DHT22;59898;52.786;6.892;2022-12-18T22:29:31;1.70;99.90
52669;DHT22;59898;52.786;6.892;2022-12-18T22:33:10;1.20;99.90
52669;DHT22;59898;52.786;6.892;2022-12-18T22:39:59;0.30;99.90
52669;DHT22;59898;52.786;6.892;2022-12-18T22:43:20;0.30;99.90
52669;DHT22;59898;52.786;6.892;2022-12-18T22:46:44;0.20;99.90
52669;DHT22;59898;52.786;6.892;2022-12-18T22:50:05;0.50;99.90
52669;DHT22;59898;52.786;6.892;2022-12-18T22:53:26;0.30;99.90
52669;DHT22;59898;52.786;6.892;2022-12-18T22:56:47;0.30;99.90
52669;DHT22;59898;52.786;6.892;2022-12-18T23:00:08;0.40;99.90
52669;DHT22;59898;52.786;6.892;2022-12-18T23:03:31;0.30;99.90
52669;DHT22;59898;52.786;6.892;2022-12-18T23:06:52;0.10;99.90
52669;DHT22;59898;52.786;6.892;2022-12-18T23:10:13;0.80;99.90
52669;DHT22;59898;52.786;6.892;2022-12-18T23:13:34;0.30;99.90
52669;DHT22;59898;52.786;6.892;2022-12-18T23:16:55;0.80;99.90
52669;DHT22;59898;52.786;6.892;2022-12-18T23:20:16;0.40;99.90
52669;DHT22;59898;52.786;6.892;2022-12-18T23:23:37;0.40;99.90
52669;DHT22;59898;52.786;6.892;2022-12-18T23:26:58;0.40;99.90